sensor_id;sensor_type;location;lat;lon;timestamp;P1;durP1;ratioP1;P2;durP2;ratioP2
70733;SDS011;58320;48.804;9.252;2023-12-14T00:02:03;4.70;;;2.85;;
70733;SDS011;58320;48.804;9.252;2023-12-14T00:04:29;4.63;;;2.70;;
70733;SDS011;58320;48.804;9.252;2023-12-14T00:06:54;6.22;;;2.60;;
70733;SDS011;58320;48.804;9.252;2023-12-14T00:09:20;5.33;;;2.70;;
70733;SDS011;58320;48.804;9.252;2023-12-14T00:11:46;4.45;;;2.42;;
70733;SDS011;58320;48.804;9.252;2023-12-14T00:14:11;4.13;;;2.30;;
70733;SDS011;58320;48.804;9.252;2023-12-14T00:16:37;5.55;;;3.00;;
70733;SDS011;58320;48.804;9.252;2023-12-14T00:19:03;4.57;;;2.70;;
70733;SDS011;58320;48.804;9.252;2023-12-14T00:21:28;7.28;;;2.90;;
70733;SDS011;58320;48.804;9.252;2023-12-14T00:23:54;6.43;;;2.77;;
70733;SDS011;58320;48.804;9.252;2023-12-14T00:26:20;6.00;;;3.25;;
70733;SDS011;58320;48.804;9.252;2023-12-14T00:28:45;5.03;;;2.73;;
70733;SDS011;58320;48.804;9.252;2023-12-14T00:31:11;5.85;;;3.10;;
70733;SDS011;58320;48.804;9.252;2023-12-14T00:33:37;4.37;;;2.93;;
70733;SDS011;58320;48.804;9.252;2023-12-14T00:36:03;5.05;;;3.15;;
70733;SDS011;58320;48.804;9.252;2023-12-14T00:38:29;5.63;;;3.35;;
70733;SDS011;58320;48.804;9.252;2023-12-14T00:40:54;4.57;;;3.03;;
70733;SDS011;58320;48.804;9.252;2023-12-14T00:43:20;4.93;;;2.80;;
70733;SDS011;58320;48.804;9.252;2023-12-14T00:45:46;6.63;;;3.37;;
70733;SDS011;58320;48.804;9.252;2023-12-14T00:48:12;7.35;;;3.15;;
70733;SDS011;58320;48.804;9.252;2023-12-14T00:50:37;5.40;;;3.30;;
70733;SDS011;58320;48.804;9.252;2023-12-14T00:53:03;5.75;;;3.55;;
70733;SDS011;58320;48.804;9.252;2023-12-14T00:55:29;5.83;;;3.30;;
70733;SDS011;58320;48.804;9.252;2023-12-14T00:57:54;9.32;;;3.67;;
70733;SDS011;58320;48.804;9.252;2023-12-14T01:00:20;5.73;;;3.33;;
70733;SDS011;58320;48.804;9.252;2023-12-14T01:02:46;6.57;;;3.30;;
70733;SDS011;58320;48.804;9.252;2023-12-14T01:05:11;6.17;;;3.40;;
70733;SDS011;58320;48.804;9.252;2023-12-14T01:07:37;5.18;;;3.10;;
70733;SDS011;58320;48.804;9.252;2023-12-14T01:10:03;5.90;;;3.30;;
70733;SDS011;58320;48.804;9.252;2023-12-14T01:12:29;5.18;;;3.17;;
70733;SDS011;58320;48.804;9.252;2023-12-14T01:14:55;7.00;;;3.38;;
70733;SDS011;58320;48.804;9.252;2023-12-14T01:17:20;7.27;;;3.57;;
70733;SDS011;58320;48.804;9.252;2023-12-14T01:19:46;5.82;;;3.45;;
70733;SDS011;58320;48.804;9.252;2023-12-14T01:22:12;6.33;;;3.60;;
70733;SDS011;58320;48.804;9.252;2023-12-14T01:24:37;7.57;;;3.20;;
70733;SDS011;58320;48.804;9.252;2023-12-14T01:27:03;9.40;;;3.90;;
70733;SDS011;58320;48.804;9.252;2023-12-14T01:29:29;9.05;;;4.25;;
70733;SDS011;58320;48.804;9.252;2023-12-14T01:31:55;9.65;;;4.80;;
70733;SDS011;58320;48.804;9.252;2023-12-14T01:34:21;7.30;;;3.83;;
70733;SDS011;58320;48.804;9.252;2023-12-14T01:36:47;7.07;;;3.45;;
70733;SDS011;58320;48.804;9.252;2023-12-14T01:39:12;7.53;;;3.60;;
70733;SDS011;58320;48.804;9.252;2023-12-14T01:41:38;8.07;;;4.10;;
70733;SDS011;58320;48.804;9.252;2023-12-14T01:44:04;8.13;;;3.40;;
70733;SDS011;58320;48.804;9.252;2023-12-14T01:46:29;6.63;;;3.70;;
70733;SDS011;58320;48.804;9.252;2023-12-14T01:48:55;6.85;;;3.53;;
70733;SDS011;58320;48.804;9.252;2023-12-14T01:51:21;7.87;;;3.70;;
70733;SDS011;58320;48.804;9.252;2023-12-14T01:53:46;6.97;;;3.25;;
70733;SDS011;58320;48.804;9.252;2023-12-14T01:56:12;5.77;;;3.20;;
70733;SDS011;58320;48.804;9.252;2023-12-14T01:58:38;6.97;;;2.90;;
70733;SDS011;58320;48.804;9.252;2023-12-14T02:03:47;8.52;;;3.42;;
70733;SDS011;58320;48.804;9.252;2023-12-14T02:06:16;5.18;;;2.90;;
70733;SDS011;58320;48.804;9.252;2023-12-14T02:08:41;6.22;;;3.03;;
70733;SDS011;58320;48.804;9.252;2023-12-14T02:11:07;7.97;;;4.00;;
70733;SDS011;58320;48.804;9.252;2023-12-14T02:13:33;5.15;;;2.67;;
70733;SDS011;58320;48.804;9.252;2023-12-14T02:15:59;5.50;;;3.00;;
70733;SDS011;58320;48.804;9.252;2023-12-14T02:18:25;5.53;;;2.78;;
70733;SDS011;58320;48.804;9.252;2023-12-14T02:20:51;6.72;;;3.80;;
70733;SDS011;58320;48.804;9.252;2023-12-14T02:23:17;5.93;;;3.30;;
70733;SDS011;58320;48.804;9.252;2023-12-14T02:25:43;7.88;;;3.78;;
70733;SDS011;58320;48.804;9.252;2023-12-14T02:28:08;10.32;;;4.22;;
70733;SDS011;58320;48.804;9.252;2023-12-14T02:30:34;6.83;;;3.60;;
70733;SDS011;58320;48.804;9.252;2023-12-14T02:33:00;6.03;;;3.45;;
70733;SDS011;58320;48.804;9.252;2023-12-14T02:35:25;6.30;;;3.80;;
70733;SDS011;58320;48.804;9.252;2023-12-14T02:37:51;7.03;;;3.78;;
70733;SDS011;58320;48.804;9.252;2023-12-14T02:40:17;6.20;;;3.70;;
70733;SDS011;58320;48.804;9.252;2023-12-14T02:42:43;8.75;;;3.95;;
70733;SDS011;58320;48.804;9.252;2023-12-14T02:45:08;8.87;;;3.77;;
70733;SDS011;58320;48.804;9.252;2023-12-14T02:47:35;7.00;;;3.50;;
70733;SDS011;58320;48.804;9.252;2023-12-14T02:50:00;6.38;;;3.17;;
70733;SDS011;58320;48.804;9.252;2023-12-14T02:52:26;5.23;;;3.07;;
70733;SDS011;58320;48.804;9.252;2023-12-14T02:54:52;5.82;;;3.22;;
70733;SDS011;58320;48.804;9.252;2023-12-14T02:57:17;7.80;;;3.40;;
70733;SDS011;58320;48.804;9.252;2023-12-14T02:59:43;7.10;;;3.35;;
70733;SDS011;58320;48.804;9.252;2023-12-14T03:02:09;9.13;;;4.28;;
70733;SDS011;58320;48.804;9.252;2023-12-14T03:04:37;8.43;;;4.07;;
70733;SDS011;58320;48.804;9.252;2023-12-14T03:07:04;7.90;;;3.85;;
70733;SDS011;58320;48.804;9.252;2023-12-14T03:09:30;8.27;;;4.15;;
70733;SDS011;58320;48.804;9.252;2023-12-14T03:11:56;8.02;;;3.85;;
70733;SDS011;58320;48.804;9.252;2023-12-14T03:14:22;6.07;;;3.33;;
70733;SDS011;58320;48.804;9.252;2023-12-14T03:16:48;7.13;;;3.42;;
70733;SDS011;58320;48.804;9.252;2023-12-14T03:19:14;9.43;;;3.13;;
70733;SDS011;58320;48.804;9.252;2023-12-14T03:21:43;6.65;;;2.90;;
70733;SDS011;58320;48.804;9.252;2023-12-14T03:24:09;4.47;;;2.60;;
70733;SDS011;58320;48.804;9.252;2023-12-14T03:26:35;4.70;;;2.33;;
70733;SDS011;58320;48.804;9.252;2023-12-14T03:29:01;5.63;;;2.20;;
70733;SDS011;58320;48.804;9.252;2023-12-14T03:31:26;4.78;;;2.15;;
70733;SDS011;58320;48.804;9.252;2023-12-14T03:33:52;3.90;;;2.30;;
70733;SDS011;58320;48.804;9.252;2023-12-14T03:36:18;3.80;;;1.90;;
70733;SDS011;58320;48.804;9.252;2023-12-14T03:38:43;4.88;;;2.53;;
70733;SDS011;58320;48.804;9.252;2023-12-14T03:41:09;5.10;;;2.03;;
70733;SDS011;58320;48.804;9.252;2023-12-14T03:43:35;4.13;;;2.10;;
70733;SDS011;58320;48.804;9.252;2023-12-14T03:46:01;3.90;;;1.80;;
70733;SDS011;58320;48.804;9.252;2023-12-14T03:48:26;5.43;;;2.30;;
70733;SDS011;58320;48.804;9.252;2023-12-14T03:50:52;4.50;;;2.30;;
70733;SDS011;58320;48.804;9.252;2023-12-14T03:53:18;5.30;;;2.50;;
70733;SDS011;58320;48.804;9.252;2023-12-14T03:55:44;7.93;;;3.45;;
70733;SDS011;58320;48.804;9.252;2023-12-14T03:58:11;6.40;;;2.80;;
70733;SDS011;58320;48.804;9.252;2023-12-14T04:03:37;6.60;;;4.13;;
70733;SDS011;58320;48.804;9.252;2023-12-14T04:06:03;7.95;;;3.97;;
70733;SDS011;58320;48.804;9.252;2023-12-14T04:08:29;7.33;;;3.57;;
70733;SDS011;58320;48.804;9.252;2023-12-14T04:10:54;6.30;;;3.58;;
70733;SDS011;58320;48.804;9.252;2023-12-14T04:13:20;6.93;;;3.90;;
70733;SDS011;58320;48.804;9.252;2023-12-14T04:15:46;8.43;;;4.20;;
70733;SDS011;58320;48.804;9.252;2023-12-14T04:18:12;7.07;;;4.13;;
70733;SDS011;58320;48.804;9.252;2023-12-14T04:20:37;9.53;;;4.50;;
70733;SDS011;58320;48.804;9.252;2023-12-14T04:23:03;8.10;;;4.00;;
70733;SDS011;58320;48.804;9.252;2023-12-14T04:25:29;7.40;;;4.43;;
70733;SDS011;58320;48.804;9.252;2023-12-14T04:27:54;8.90;;;4.65;;
70733;SDS011;58320;48.804;9.252;2023-12-14T04:30:20;8.03;;;4.03;;
70733;SDS011;58320;48.804;9.252;2023-12-14T04:32:46;7.20;;;4.50;;
70733;SDS011;58320;48.804;9.252;2023-12-14T04:35:12;7.88;;;4.15;;
70733;SDS011;58320;48.804;9.252;2023-12-14T04:37:38;10.00;;;4.53;;
70733;SDS011;58320;48.804;9.252;2023-12-14T04:40:04;7.30;;;4.40;;
70733;SDS011;58320;48.804;9.252;2023-12-14T04:42:30;7.70;;;3.93;;
70733;SDS011;58320;48.804;9.252;2023-12-14T04:44:56;8.52;;;4.22;;
70733;SDS011;58320;48.804;9.252;2023-12-14T04:47:22;6.68;;;3.83;;
70733;SDS011;58320;48.804;9.252;2023-12-14T04:49:47;7.67;;;4.30;;
70733;SDS011;58320;48.804;9.252;2023-12-14T04:52:13;8.05;;;4.57;;
70733;SDS011;58320;48.804;9.252;2023-12-14T04:54:39;7.03;;;4.03;;
70733;SDS011;58320;48.804;9.252;2023-12-14T04:57:05;8.30;;;4.50;;
70733;SDS011;58320;48.804;9.252;2023-12-14T04:59:31;8.90;;;4.63;;
70733;SDS011;58320;48.804;9.252;2023-12-14T05:01:57;8.37;;;4.80;;
70733;SDS011;58320;48.804;9.252;2023-12-14T05:04:22;8.95;;;4.65;;
70733;SDS011;58320;48.804;9.252;2023-12-14T05:06:48;6.80;;;3.97;;
70733;SDS011;58320;48.804;9.252;2023-12-14T05:09:14;7.80;;;4.85;;
70733;SDS011;58320;48.804;9.252;2023-12-14T05:11:39;9.53;;;5.10;;
70733;SDS011;58320;48.804;9.252;2023-12-14T05:14:05;8.35;;;4.70;;
70733;SDS011;58320;48.804;9.252;2023-12-14T05:16:31;8.30;;;4.60;;
70733;SDS011;58320;48.804;9.252;2023-12-14T05:18:57;10.07;;;4.75;;
70733;SDS011;58320;48.804;9.252;2023-12-14T05:21:23;7.82;;;4.10;;
70733;SDS011;58320;48.804;9.252;2023-12-14T05:23:49;7.53;;;4.13;;
70733;SDS011;58320;48.804;9.252;2023-12-14T05:26:14;6.25;;;3.65;;
70733;SDS011;58320;48.804;9.252;2023-12-14T05:28:40;7.72;;;4.07;;
70733;SDS011;58320;48.804;9.252;2023-12-14T05:31:06;7.00;;;3.53;;
70733;SDS011;58320;48.804;9.252;2023-12-14T05:33:32;6.60;;;3.78;;
70733;SDS011;58320;48.804;9.252;2023-12-14T05:36:02;8.00;;;4.28;;
70733;SDS011;58320;48.804;9.252;2023-12-14T05:38:30;7.43;;;4.17;;
70733;SDS011;58320;48.804;9.252;2023-12-14T05:40:56;7.53;;;4.22;;
70733;SDS011;58320;48.804;9.252;2023-12-14T05:43:22;8.23;;;4.38;;
70733;SDS011;58320;48.804;9.252;2023-12-14T05:45:48;6.40;;;3.83;;
70733;SDS011;58320;48.804;9.252;2023-12-14T05:48:13;7.90;;;4.03;;
70733;SDS011;58320;48.804;9.252;2023-12-14T05:50:39;8.37;;;4.20;;
70733;SDS011;58320;48.804;9.252;2023-12-14T05:53:05;13.07;;;5.50;;
70733;SDS011;58320;48.804;9.252;2023-12-14T05:55:31;11.13;;;5.23;;
70733;SDS011;58320;48.804;9.252;2023-12-14T05:57:56;8.93;;;5.43;;
70733;SDS011;58320;48.804;9.252;2023-12-14T06:00:22;10.93;;;5.27;;
70733;SDS011;58320;48.804;9.252;2023-12-14T06:02:48;10.67;;;4.93;;
70733;SDS011;58320;48.804;9.252;2023-12-14T06:05:13;9.38;;;5.20;;
70733;SDS011;58320;48.804;9.252;2023-12-14T06:07:39;9.87;;;5.30;;
70733;SDS011;58320;48.804;9.252;2023-12-14T06:10:05;12.45;;;4.90;;
70733;SDS011;58320;48.804;9.252;2023-12-14T06:12:31;10.63;;;3.93;;
70733;SDS011;58320;48.804;9.252;2023-12-14T06:14:57;7.97;;;4.25;;
70733;SDS011;58320;48.804;9.252;2023-12-14T06:17:22;7.93;;;4.13;;
70733;SDS011;58320;48.804;9.252;2023-12-14T06:19:48;7.97;;;4.40;;
70733;SDS011;58320;48.804;9.252;2023-12-14T06:22:14;8.45;;;4.95;;
70733;SDS011;58320;48.804;9.252;2023-12-14T06:24:40;9.33;;;5.23;;
70733;SDS011;58320;48.804;9.252;2023-12-14T06:27:05;8.07;;;4.60;;
70733;SDS011;58320;48.804;9.252;2023-12-14T06:29:31;10.53;;;5.13;;
70733;SDS011;58320;48.804;9.252;2023-12-14T06:31:57;9.63;;;4.93;;
70733;SDS011;58320;48.804;9.252;2023-12-14T06:34:22;7.87;;;4.23;;
70733;SDS011;58320;48.804;9.252;2023-12-14T06:36:48;10.25;;;4.70;;
70733;SDS011;58320;48.804;9.252;2023-12-14T06:39:14;8.80;;;4.33;;
70733;SDS011;58320;48.804;9.252;2023-12-14T06:41:39;8.32;;;4.65;;
70733;SDS011;58320;48.804;9.252;2023-12-14T06:44:05;9.40;;;4.60;;
70733;SDS011;58320;48.804;9.252;2023-12-14T06:46:34;7.88;;;4.22;;
70733;SDS011;58320;48.804;9.252;2023-12-14T06:49:00;7.28;;;4.45;;
70733;SDS011;58320;48.804;9.252;2023-12-14T06:51:25;11.85;;;4.85;;
70733;SDS011;58320;48.804;9.252;2023-12-14T06:53:51;9.37;;;4.20;;
70733;SDS011;58320;48.804;9.252;2023-12-14T06:56:17;7.55;;;4.40;;
70733;SDS011;58320;48.804;9.252;2023-12-14T06:58:43;7.80;;;4.40;;
70733;SDS011;58320;48.804;9.252;2023-12-14T07:01:13;8.45;;;4.43;;
70733;SDS011;58320;48.804;9.252;2023-12-14T07:03:42;7.82;;;4.28;;
70733;SDS011;58320;48.804;9.252;2023-12-14T07:06:16;7.80;;;4.32;;
70733;SDS011;58320;48.804;9.252;2023-12-14T07:08:44;7.13;;;4.60;;
70733;SDS011;58320;48.804;9.252;2023-12-14T07:11:10;7.10;;;4.30;;
70733;SDS011;58320;48.804;9.252;2023-12-14T07:13:37;8.25;;;4.15;;
70733;SDS011;58320;48.804;9.252;2023-12-14T07:16:06;7.13;;;4.15;;
70733;SDS011;58320;48.804;9.252;2023-12-14T07:18:37;7.65;;;4.32;;
70733;SDS011;58320;48.804;9.252;2023-12-14T07:21:04;7.18;;;3.85;;
70733;SDS011;58320;48.804;9.252;2023-12-14T07:23:30;7.60;;;3.97;;
70733;SDS011;58320;48.804;9.252;2023-12-14T07:25:56;9.00;;;3.90;;
70733;SDS011;58320;48.804;9.252;2023-12-14T07:28:22;7.65;;;4.35;;
70733;SDS011;58320;48.804;9.252;2023-12-14T07:30:48;7.07;;;3.60;;
70733;SDS011;58320;48.804;9.252;2023-12-14T07:33:14;7.00;;;3.88;;
70733;SDS011;58320;48.804;9.252;2023-12-14T07:35:40;6.65;;;3.42;;
70733;SDS011;58320;48.804;9.252;2023-12-14T07:38:06;8.70;;;4.60;;
70733;SDS011;58320;48.804;9.252;2023-12-14T07:40:33;5.65;;;3.85;;
70733;SDS011;58320;48.804;9.252;2023-12-14T07:42:59;8.57;;;4.47;;
70733;SDS011;58320;48.804;9.252;2023-12-14T07:45:24;7.35;;;4.15;;
70733;SDS011;58320;48.804;9.252;2023-12-14T07:47:50;6.57;;;3.70;;
70733;SDS011;58320;48.804;9.252;2023-12-14T07:50:16;8.40;;;4.30;;
70733;SDS011;58320;48.804;9.252;2023-12-14T07:52:42;7.17;;;4.20;;
70733;SDS011;58320;48.804;9.252;2023-12-14T07:55:08;6.95;;;4.28;;
70733;SDS011;58320;48.804;9.252;2023-12-14T07:57:34;8.00;;;4.17;;
70733;SDS011;58320;48.804;9.252;2023-12-14T08:00:00;7.70;;;4.90;;
70733;SDS011;58320;48.804;9.252;2023-12-14T08:02:25;9.05;;;5.10;;
70733;SDS011;58320;48.804;9.252;2023-12-14T08:04:51;9.47;;;4.47;;
70733;SDS011;58320;48.804;9.252;2023-12-14T08:07:17;9.68;;;5.38;;
70733;SDS011;58320;48.804;9.252;2023-12-14T08:09:43;9.83;;;5.57;;
70733;SDS011;58320;48.804;9.252;2023-12-14T08:12:09;10.68;;;6.13;;
70733;SDS011;58320;48.804;9.252;2023-12-14T08:14:35;11.93;;;6.53;;
70733;SDS011;58320;48.804;9.252;2023-12-14T08:17:02;12.98;;;6.72;;
70733;SDS011;58320;48.804;9.252;2023-12-14T08:19:28;12.23;;;6.50;;
70733;SDS011;58320;48.804;9.252;2023-12-14T08:21:54;9.65;;;6.00;;
70733;SDS011;58320;48.804;9.252;2023-12-14T08:24:20;8.93;;;5.50;;
70733;SDS011;58320;48.804;9.252;2023-12-14T08:26:46;11.60;;;5.75;;
70733;SDS011;58320;48.804;9.252;2023-12-14T08:29:12;10.13;;;5.90;;
70733;SDS011;58320;48.804;9.252;2023-12-14T08:31:38;10.47;;;5.70;;
70733;SDS011;58320;48.804;9.252;2023-12-14T08:34:03;10.77;;;5.75;;
70733;SDS011;58320;48.804;9.252;2023-12-14T08:36:29;11.83;;;6.37;;
70733;SDS011;58320;48.804;9.252;2023-12-14T08:38:56;9.32;;;5.43;;
70733;SDS011;58320;48.804;9.252;2023-12-14T08:41:22;10.07;;;6.18;;
70733;SDS011;58320;48.804;9.252;2023-12-14T08:43:48;9.70;;;5.87;;
70733;SDS011;58320;48.804;9.252;2023-12-14T08:46:13;11.98;;;6.00;;
70733;SDS011;58320;48.804;9.252;2023-12-14T08:48:39;11.50;;;6.10;;
70733;SDS011;58320;48.804;9.252;2023-12-14T08:51:05;8.20;;;5.15;;
70733;SDS011;58320;48.804;9.252;2023-12-14T08:53:31;10.73;;;6.00;;
70733;SDS011;58320;48.804;9.252;2023-12-14T08:55:57;11.73;;;6.07;;
70733;SDS011;58320;48.804;9.252;2023-12-14T08:58:23;10.60;;;5.95;;
70733;SDS011;58320;48.804;9.252;2023-12-14T09:00:48;10.50;;;5.65;;
70733;SDS011;58320;48.804;9.252;2023-12-14T09:03:18;10.10;;;5.50;;
70733;SDS011;58320;48.804;9.252;2023-12-14T09:05:44;12.63;;;6.22;;
70733;SDS011;58320;48.804;9.252;2023-12-14T09:08:10;10.85;;;6.10;;
70733;SDS011;58320;48.804;9.252;2023-12-14T09:10:36;10.93;;;6.15;;
70733;SDS011;58320;48.804;9.252;2023-12-14T09:13:05;11.57;;;6.05;;
70733;SDS011;58320;48.804;9.252;2023-12-14T09:15:31;12.10;;;6.83;;
70733;SDS011;58320;48.804;9.252;2023-12-14T09:17:58;10.15;;;6.03;;
70733;SDS011;58320;48.804;9.252;2023-12-14T09:20:24;11.90;;;6.65;;
70733;SDS011;58320;48.804;9.252;2023-12-14T09:22:50;11.20;;;6.13;;
70733;SDS011;58320;48.804;9.252;2023-12-14T09:25:16;10.53;;;6.00;;
70733;SDS011;58320;48.804;9.252;2023-12-14T09:27:43;10.05;;;5.65;;
70733;SDS011;58320;48.804;9.252;2023-12-14T09:30:09;11.30;;;5.80;;
70733;SDS011;58320;48.804;9.252;2023-12-14T09:32:35;9.80;;;6.15;;
70733;SDS011;58320;48.804;9.252;2023-12-14T09:35:01;11.20;;;5.87;;
70733;SDS011;58320;48.804;9.252;2023-12-14T09:37:28;10.35;;;6.05;;
70733;SDS011;58320;48.804;9.252;2023-12-14T09:39:53;10.23;;;6.03;;
70733;SDS011;58320;48.804;9.252;2023-12-14T09:42:19;9.70;;;5.50;;
70733;SDS011;58320;48.804;9.252;2023-12-14T09:44:49;10.68;;;6.15;;
70733;SDS011;58320;48.804;9.252;2023-12-14T09:47:16;10.13;;;5.72;;
70733;SDS011;58320;48.804;9.252;2023-12-14T09:49:42;10.00;;;6.25;;
70733;SDS011;58320;48.804;9.252;2023-12-14T09:52:09;10.93;;;5.95;;
70733;SDS011;58320;48.804;9.252;2023-12-14T09:54:35;11.37;;;6.37;;
70733;SDS011;58320;48.804;9.252;2023-12-14T09:57:01;10.00;;;5.82;;
70733;SDS011;58320;48.804;9.252;2023-12-14T09:59:26;11.05;;;6.43;;
70733;SDS011;58320;48.804;9.252;2023-12-14T10:01:52;11.30;;;6.47;;
70733;SDS011;58320;48.804;9.252;2023-12-14T10:04:18;13.07;;;6.00;;
70733;SDS011;58320;48.804;9.252;2023-12-14T10:06:46;10.32;;;5.90;;
70733;SDS011;58320;48.804;9.252;2023-12-14T10:09:12;11.60;;;6.13;;
70733;SDS011;58320;48.804;9.252;2023-12-14T10:11:43;11.90;;;5.97;;
70733;SDS011;58320;48.804;9.252;2023-12-14T10:14:19;10.65;;;6.50;;
70733;SDS011;58320;48.804;9.252;2023-12-14T10:16:50;10.48;;;6.18;;
70733;SDS011;58320;48.804;9.252;2023-12-14T10:19:17;10.75;;;6.13;;
70733;SDS011;58320;48.804;9.252;2023-12-14T10:21:45;10.37;;;5.90;;
70733;SDS011;58320;48.804;9.252;2023-12-14T10:24:12;9.80;;;5.40;;
70733;SDS011;58320;48.804;9.252;2023-12-14T10:26:39;8.73;;;5.70;;
70733;SDS011;58320;48.804;9.252;2023-12-14T10:29:05;9.00;;;5.32;;
70733;SDS011;58320;48.804;9.252;2023-12-14T10:31:32;10.57;;;5.65;;
70733;SDS011;58320;48.804;9.252;2023-12-14T10:34:03;10.17;;;5.70;;
70733;SDS011;58320;48.804;9.252;2023-12-14T10:36:29;10.60;;;6.05;;
70733;SDS011;58320;48.804;9.252;2023-12-14T10:38:57;9.30;;;5.50;;
70733;SDS011;58320;48.804;9.252;2023-12-14T10:41:24;9.80;;;5.70;;
70733;SDS011;58320;48.804;9.252;2023-12-14T10:43:53;11.90;;;5.85;;
70733;SDS011;58320;48.804;9.252;2023-12-14T10:46:20;9.70;;;5.97;;
70733;SDS011;58320;48.804;9.252;2023-12-14T10:48:48;11.82;;;6.28;;
70733;SDS011;58320;48.804;9.252;2023-12-14T10:51:17;10.95;;;5.60;;
70733;SDS011;58320;48.804;9.252;2023-12-14T10:53:46;12.63;;;6.60;;
70733;SDS011;58320;48.804;9.252;2023-12-14T10:56:13;11.85;;;6.65;;
70733;SDS011;58320;48.804;9.252;2023-12-14T11:01:16;11.82;;;6.13;;
70733;SDS011;58320;48.804;9.252;2023-12-14T11:03:45;10.10;;;5.78;;
70733;SDS011;58320;48.804;9.252;2023-12-14T11:08:55;12.00;;;6.40;;
70733;SDS011;58320;48.804;9.252;2023-12-14T11:14:13;11.60;;;6.07;;
70733;SDS011;58320;48.804;9.252;2023-12-14T11:16:43;10.95;;;6.10;;
70733;SDS011;58320;48.804;9.252;2023-12-14T11:21:46;9.52;;;5.35;;
70733;SDS011;58320;48.804;9.252;2023-12-14T11:24:30;10.83;;;5.60;;
70733;SDS011;58320;48.804;9.252;2023-12-14T11:26:56;10.88;;;5.93;;
70733;SDS011;58320;48.804;9.252;2023-12-14T11:29:22;9.77;;;5.30;;
70733;SDS011;58320;48.804;9.252;2023-12-14T11:31:48;9.60;;;4.13;;
70733;SDS011;58320;48.804;9.252;2023-12-14T11:34:16;9.60;;;4.68;;
70733;SDS011;58320;48.804;9.252;2023-12-14T11:36:42;8.10;;;4.63;;
70733;SDS011;58320;48.804;9.252;2023-12-14T11:39:10;9.90;;;4.57;;
70733;SDS011;58320;48.804;9.252;2023-12-14T11:41:36;8.48;;;4.32;;
70733;SDS011;58320;48.804;9.252;2023-12-14T11:44:03;11.05;;;4.50;;
70733;SDS011;58320;48.804;9.252;2023-12-14T11:46:30;9.40;;;3.83;;
70733;SDS011;58320;48.804;9.252;2023-12-14T11:48:56;9.55;;;4.15;;
70733;SDS011;58320;48.804;9.252;2023-12-14T11:51:23;7.63;;;4.00;;
70733;SDS011;58320;48.804;9.252;2023-12-14T11:53:51;9.02;;;4.53;;
70733;SDS011;58320;48.804;9.252;2023-12-14T11:56:17;10.30;;;5.25;;
70733;SDS011;58320;48.804;9.252;2023-12-14T11:58:44;9.85;;;4.72;;
70733;SDS011;58320;48.804;9.252;2023-12-14T12:01:11;11.68;;;4.93;;
70733;SDS011;58320;48.804;9.252;2023-12-14T12:03:42;10.33;;;4.97;;
70733;SDS011;58320;48.804;9.252;2023-12-14T12:06:21;7.68;;;4.00;;
70733;SDS011;58320;48.804;9.252;2023-12-14T12:08:50;9.88;;;5.00;;
70733;SDS011;58320;48.804;9.252;2023-12-14T12:11:25;8.02;;;4.10;;
70733;SDS011;58320;48.804;9.252;2023-12-14T12:13:52;5.65;;;3.42;;
70733;SDS011;58320;48.804;9.252;2023-12-14T12:16:20;7.57;;;4.07;;
70733;SDS011;58320;48.804;9.252;2023-12-14T12:18:46;6.40;;;3.95;;
70733;SDS011;58320;48.804;9.252;2023-12-14T12:21:12;6.63;;;3.22;;
70733;SDS011;58320;48.804;9.252;2023-12-14T12:23:38;5.68;;;2.72;;
70733;SDS011;58320;48.804;9.252;2023-12-14T12:26:04;6.40;;;2.70;;
70733;SDS011;58320;48.804;9.252;2023-12-14T12:28:30;5.53;;;3.17;;
70733;SDS011;58320;48.804;9.252;2023-12-14T12:30:56;5.93;;;3.03;;
70733;SDS011;58320;48.804;9.252;2023-12-14T12:33:22;5.75;;;2.67;;
70733;SDS011;58320;48.804;9.252;2023-12-14T12:35:48;4.67;;;2.83;;
70733;SDS011;58320;48.804;9.252;2023-12-14T12:38:14;4.30;;;2.55;;
70733;SDS011;58320;48.804;9.252;2023-12-14T12:40:41;5.38;;;2.90;;
70733;SDS011;58320;48.804;9.252;2023-12-14T12:43:07;6.22;;;2.83;;
70733;SDS011;58320;48.804;9.252;2023-12-14T12:45:33;6.33;;;3.03;;
70733;SDS011;58320;48.804;9.252;2023-12-14T12:48:00;6.40;;;2.92;;
70733;SDS011;58320;48.804;9.252;2023-12-14T12:50:28;5.43;;;3.33;;
70733;SDS011;58320;48.804;9.252;2023-12-14T12:52:53;6.60;;;3.50;;
70733;SDS011;58320;48.804;9.252;2023-12-14T12:55:19;5.57;;;3.50;;
70733;SDS011;58320;48.804;9.252;2023-12-14T12:57:45;6.73;;;3.90;;
70733;SDS011;58320;48.804;9.252;2023-12-14T13:00:12;7.35;;;3.58;;
70733;SDS011;58320;48.804;9.252;2023-12-14T13:02:41;6.97;;;3.90;;
70733;SDS011;58320;48.804;9.252;2023-12-14T13:05:10;5.55;;;3.33;;
70733;SDS011;58320;48.804;9.252;2023-12-14T13:07:36;5.47;;;3.10;;
70733;SDS011;58320;48.804;9.252;2023-12-14T13:10:02;7.23;;;3.40;;
70733;SDS011;58320;48.804;9.252;2023-12-14T13:12:31;5.82;;;3.05;;
70733;SDS011;58320;48.804;9.252;2023-12-14T13:14:56;6.25;;;3.10;;
70733;SDS011;58320;48.804;9.252;2023-12-14T13:17:22;6.67;;;3.07;;
70733;SDS011;58320;48.804;9.252;2023-12-14T13:19:48;7.35;;;3.30;;
70733;SDS011;58320;48.804;9.252;2023-12-14T13:22:14;5.60;;;3.47;;
70733;SDS011;58320;48.804;9.252;2023-12-14T13:24:40;6.97;;;3.97;;
70733;SDS011;58320;48.804;9.252;2023-12-14T13:27:06;7.03;;;3.90;;
70733;SDS011;58320;48.804;9.252;2023-12-14T13:29:32;6.83;;;4.07;;
70733;SDS011;58320;48.804;9.252;2023-12-14T13:31:59;6.90;;;3.50;;
70733;SDS011;58320;48.804;9.252;2023-12-14T13:34:25;7.43;;;3.67;;
70733;SDS011;58320;48.804;9.252;2023-12-14T13:36:52;8.48;;;4.10;;
70733;SDS011;58320;48.804;9.252;2023-12-14T13:39:19;6.83;;;3.93;;
70733;SDS011;58320;48.804;9.252;2023-12-14T13:41:45;7.20;;;3.45;;
70733;SDS011;58320;48.804;9.252;2023-12-14T13:44:11;6.22;;;3.45;;
70733;SDS011;58320;48.804;9.252;2023-12-14T13:46:36;7.10;;;3.53;;
70733;SDS011;58320;48.804;9.252;2023-12-14T13:49:02;7.97;;;3.78;;
70733;SDS011;58320;48.804;9.252;2023-12-14T13:51:28;8.00;;;3.70;;
70733;SDS011;58320;48.804;9.252;2023-12-14T13:53:54;7.40;;;3.80;;
70733;SDS011;58320;48.804;9.252;2023-12-14T13:56:20;8.85;;;4.38;;
70733;SDS011;58320;48.804;9.252;2023-12-14T13:58:46;6.07;;;3.72;;
70733;SDS011;58320;48.804;9.252;2023-12-14T14:01:11;6.57;;;3.60;;
70733;SDS011;58320;48.804;9.252;2023-12-14T14:03:38;9.20;;;3.80;;
70733;SDS011;58320;48.804;9.252;2023-12-14T14:06:06;6.20;;;3.42;;
70733;SDS011;58320;48.804;9.252;2023-12-14T14:08:33;6.35;;;3.42;;
70733;SDS011;58320;48.804;9.252;2023-12-14T14:11:00;8.85;;;3.92;;
70733;SDS011;58320;48.804;9.252;2023-12-14T14:13:26;7.40;;;3.73;;
70733;SDS011;58320;48.804;9.252;2023-12-14T14:15:54;9.05;;;3.92;;
70733;SDS011;58320;48.804;9.252;2023-12-14T14:18:20;8.82;;;4.35;;
70733;SDS011;58320;48.804;9.252;2023-12-14T14:20:46;9.68;;;4.38;;
70733;SDS011;58320;48.804;9.252;2023-12-14T14:23:12;9.97;;;5.37;;
70733;SDS011;58320;48.804;9.252;2023-12-14T14:25:38;10.40;;;5.68;;
70733;SDS011;58320;48.804;9.252;2023-12-14T14:28:04;11.18;;;5.60;;
70733;SDS011;58320;48.804;9.252;2023-12-14T14:30:30;8.87;;;4.50;;
70733;SDS011;58320;48.804;9.252;2023-12-14T14:32:56;11.15;;;5.28;;
70733;SDS011;58320;48.804;9.252;2023-12-14T14:35:22;13.57;;;5.88;;
70733;SDS011;58320;48.804;9.252;2023-12-14T14:37:51;12.70;;;6.53;;
70733;SDS011;58320;48.804;9.252;2023-12-14T14:40:16;12.10;;;6.47;;
70733;SDS011;58320;48.804;9.252;2023-12-14T14:42:43;20.23;;;11.18;;
70733;SDS011;58320;48.804;9.252;2023-12-14T14:45:10;20.50;;;10.95;;
70733;SDS011;58320;48.804;9.252;2023-12-14T14:47:36;21.40;;;11.20;;
70733;SDS011;58320;48.804;9.252;2023-12-14T14:50:02;22.10;;;12.20;;
70733;SDS011;58320;48.804;9.252;2023-12-14T14:52:30;22.33;;;12.18;;
70733;SDS011;58320;48.804;9.252;2023-12-14T14:54:56;18.58;;;10.25;;